sensor_id;sensor_type;location;lat;lon;timestamp;P1;durP1;ratioP1;P2;durP2;ratioP2
74926;SDS011;63488;48.092;-1.640;2023-06-14T00:00:12;24.10;;;16.33;;
74926;SDS011;63488;48.092;-1.640;2023-06-14T00:02:40;19.55;;;15.60;;
74926;SDS011;63488;48.092;-1.640;2023-06-14T00:05:06;23.00;;;15.88;;
74926;SDS011;63488;48.092;-1.640;2023-06-14T00:07:36;23.15;;;16.17;;
74926;SDS011;63488;48.092;-1.640;2023-06-14T00:10:02;25.38;;;17.20;;
74926;SDS011;63488;48.092;-1.640;2023-06-14T00:12:28;22.45;;;16.55;;
74926;SDS011;63488;48.092;-1.640;2023-06-14T00:14:53;21.23;;;16.42;;
74926;SDS011;63488;48.092;-1.640;2023-06-14T00:17:19;23.45;;;17.23;;
74926;SDS011;63488;48.092;-1.640;2023-06-14T00:19:44;24.42;;;17.38;;
74926;SDS011;63488;48.092;-1.640;2023-06-14T00:22:09;23.10;;;17.27;;
74926;SDS011;63488;48.092;-1.640;2023-06-14T00:24:35;23.63;;;17.73;;
74926;SDS011;63488;48.092;-1.640;2023-06-14T00:27:01;25.02;;;18.08;;
74926;SDS011;63488;48.092;-1.640;2023-06-14T00:29:26;26.83;;;19.15;;
74926;SDS011;63488;48.092;-1.640;2023-06-14T00:31:51;25.77;;;17.27;;
74926;SDS011;63488;48.092;-1.640;2023-06-14T00:34:17;27.35;;;19.10;;
74926;SDS011;63488;48.092;-1.640;2023-06-14T00:36:42;23.48;;;18.52;;
74926;SDS011;63488;48.092;-1.640;2023-06-14T00:39:07;24.73;;;18.52;;
74926;SDS011;63488;48.092;-1.640;2023-06-14T00:41:34;26.52;;;18.75;;
74926;SDS011;63488;48.092;-1.640;2023-06-14T00:44:00;26.33;;;19.55;;
74926;SDS011;63488;48.092;-1.640;2023-06-14T00:46:25;26.92;;;19.08;;
74926;SDS011;63488;48.092;-1.640;2023-06-14T00:48:51;25.98;;;19.42;;
74926;SDS011;63488;48.092;-1.640;2023-06-14T00:51:16;29.92;;;21.10;;
74926;SDS011;63488;48.092;-1.640;2023-06-14T00:53:42;28.25;;;21.33;;
74926;SDS011;63488;48.092;-1.640;2023-06-14T00:56:11;29.67;;;21.48;;
74926;SDS011;63488;48.092;-1.640;2023-06-14T00:58:38;29.60;;;19.73;;
74926;SDS011;63488;48.092;-1.640;2023-06-14T01:01:04;28.98;;;20.48;;
74926;SDS011;63488;48.092;-1.640;2023-06-14T01:03:29;27.98;;;20.60;;
74926;SDS011;63488;48.092;-1.640;2023-06-14T01:06:03;29.42;;;20.85;;
74926;SDS011;63488;48.092;-1.640;2023-06-14T01:09:06;28.02;;;20.63;;
74926;SDS011;63488;48.092;-1.640;2023-06-14T01:11:24;30.75;;;21.23;;
74926;SDS011;63488;48.092;-1.640;2023-06-14T01:13:52;27.52;;;20.75;;
74926;SDS011;63488;48.092;-1.640;2023-06-14T01:16:18;29.45;;;21.90;;
74926;SDS011;63488;48.092;-1.640;2023-06-14T01:18:45;30.15;;;21.60;;
74926;SDS011;63488;48.092;-1.640;2023-06-14T01:21:22;28.00;;;20.25;;
74926;SDS011;63488;48.092;-1.640;2023-06-14T01:23:48;31.15;;;21.98;;
74926;SDS011;63488;48.092;-1.640;2023-06-14T01:26:18;26.90;;;20.73;;
74926;SDS011;63488;48.092;-1.640;2023-06-14T01:28:44;29.60;;;21.92;;
74926;SDS011;63488;48.092;-1.640;2023-06-14T01:31:16;32.03;;;21.52;;
74926;SDS011;63488;48.092;-1.640;2023-06-14T01:33:42;33.10;;;23.25;;
74926;SDS011;63488;48.092;-1.640;2023-06-14T01:36:08;29.90;;;22.40;;
74926;SDS011;63488;48.092;-1.640;2023-06-14T01:38:34;29.77;;;22.55;;
74926;SDS011;63488;48.092;-1.640;2023-06-14T01:41:01;31.73;;;23.52;;
74926;SDS011;63488;48.092;-1.640;2023-06-14T01:43:27;34.08;;;23.65;;
74926;SDS011;63488;48.092;-1.640;2023-06-14T01:45:55;33.00;;;24.20;;
74926;SDS011;63488;48.092;-1.640;2023-06-14T01:48:21;29.33;;;23.17;;
74926;SDS011;63488;48.092;-1.640;2023-06-14T01:50:47;34.78;;;23.83;;
74926;SDS011;63488;48.092;-1.640;2023-06-14T01:53:13;31.08;;;23.25;;
74926;SDS011;63488;48.092;-1.640;2023-06-14T01:55:38;33.38;;;23.25;;
74926;SDS011;63488;48.092;-1.640;2023-06-14T01:58:08;33.03;;;23.33;;
74926;SDS011;63488;48.092;-1.640;2023-06-14T02:00:34;33.88;;;24.23;;
74926;SDS011;63488;48.092;-1.640;2023-06-14T02:02:59;33.92;;;23.35;;
74926;SDS011;63488;48.092;-1.640;2023-06-14T02:05:25;34.40;;;25.23;;
74926;SDS011;63488;48.092;-1.640;2023-06-14T02:07:51;32.88;;;24.45;;
74926;SDS011;63488;48.092;-1.640;2023-06-14T02:10:17;37.10;;;25.00;;
74926;SDS011;63488;48.092;-1.640;2023-06-14T02:12:42;36.05;;;23.55;;
74926;SDS011;63488;48.092;-1.640;2023-06-14T02:15:08;32.03;;;22.85;;
74926;SDS011;63488;48.092;-1.640;2023-06-14T02:17:34;33.13;;;24.25;;
74926;SDS011;63488;48.092;-1.640;2023-06-14T02:19:59;34.45;;;24.55;;
74926;SDS011;63488;48.092;-1.640;2023-06-14T02:22:25;34.33;;;24.35;;
74926;SDS011;63488;48.092;-1.640;2023-06-14T02:24:51;33.67;;;23.27;;
74926;SDS011;63488;48.092;-1.640;2023-06-14T02:27:16;37.40;;;24.92;;
74926;SDS011;63488;48.092;-1.640;2023-06-14T02:29:42;33.72;;;24.30;;
74926;SDS011;63488;48.092;-1.640;2023-06-14T02:32:07;36.90;;;24.42;;
74926;SDS011;63488;48.092;-1.640;2023-06-14T02:34:33;35.65;;;24.98;;
74926;SDS011;63488;48.092;-1.640;2023-06-14T02:36:59;36.80;;;26.13;;
74926;SDS011;63488;48.092;-1.640;2023-06-14T02:39:24;35.97;;;24.70;;
74926;SDS011;63488;48.092;-1.640;2023-06-14T02:41:50;35.58;;;25.58;;
74926;SDS011;63488;48.092;-1.640;2023-06-14T02:44:17;35.53;;;26.23;;
74926;SDS011;63488;48.092;-1.640;2023-06-14T02:46:44;37.00;;;25.67;;
74926;SDS011;63488;48.092;-1.640;2023-06-14T02:49:10;37.90;;;26.23;;
74926;SDS011;63488;48.092;-1.640;2023-06-14T02:51:35;40.53;;;27.33;;
74926;SDS011;63488;48.092;-1.640;2023-06-14T02:54:01;40.85;;;28.08;;
74926;SDS011;63488;48.092;-1.640;2023-06-14T02:56:26;36.20;;;27.15;;
74926;SDS011;63488;48.092;-1.640;2023-06-14T02:58:51;37.05;;;25.98;;
74926;SDS011;63488;48.092;-1.640;2023-06-14T03:01:18;38.50;;;26.90;;
74926;SDS011;63488;48.092;-1.640;2023-06-14T03:03:44;38.88;;;26.95;;
74926;SDS011;63488;48.092;-1.640;2023-06-14T03:06:09;35.08;;;25.17;;
74926;SDS011;63488;48.092;-1.640;2023-06-14T03:08:39;34.55;;;25.23;;
74926;SDS011;63488;48.092;-1.640;2023-06-14T03:11:04;37.33;;;25.05;;
74926;SDS011;63488;48.092;-1.640;2023-06-14T03:13:30;36.05;;;24.50;;
74926;SDS011;63488;48.092;-1.640;2023-06-14T03:15:57;37.33;;;26.13;;
74926;SDS011;63488;48.092;-1.640;2023-06-14T03:18:23;37.05;;;26.50;;
74926;SDS011;63488;48.092;-1.640;2023-06-14T03:20:48;38.08;;;26.80;;
74926;SDS011;63488;48.092;-1.640;2023-06-14T03:23:14;37.38;;;26.98;;
74926;SDS011;63488;48.092;-1.640;2023-06-14T03:25:39;38.60;;;26.80;;
74926;SDS011;63488;48.092;-1.640;2023-06-14T03:28:07;42.00;;;27.25;;
74926;SDS011;63488;48.092;-1.640;2023-06-14T03:30:32;38.85;;;26.73;;
74926;SDS011;63488;48.092;-1.640;2023-06-14T03:32:58;39.67;;;26.88;;
74926;SDS011;63488;48.092;-1.640;2023-06-14T03:35:26;38.45;;;26.52;;
74926;SDS011;63488;48.092;-1.640;2023-06-14T03:37:52;35.03;;;25.95;;
74926;SDS011;63488;48.092;-1.640;2023-06-14T03:40:18;38.47;;;27.13;;
74926;SDS011;63488;48.092;-1.640;2023-06-14T03:42:43;39.08;;;26.88;;
74926;SDS011;63488;48.092;-1.640;2023-06-14T03:45:09;38.10;;;27.38;;
74926;SDS011;63488;48.092;-1.640;2023-06-14T03:47:34;38.70;;;27.00;;
74926;SDS011;63488;48.092;-1.640;2023-06-14T03:50:01;43.10;;;29.55;;
74926;SDS011;63488;48.092;-1.640;2023-06-14T03:52:27;42.78;;;28.27;;
74926;SDS011;63488;48.092;-1.640;2023-06-14T03:54:53;42.58;;;28.90;;
74926;SDS011;63488;48.092;-1.640;2023-06-14T03:57:18;39.72;;;27.17;;
74926;SDS011;63488;48.092;-1.640;2023-06-14T03:59:44;40.88;;;28.00;;
74926;SDS011;63488;48.092;-1.640;2023-06-14T04:02:09;41.28;;;27.90;;
74926;SDS011;63488;48.092;-1.640;2023-06-14T04:04:35;41.05;;;27.48;;
74926;SDS011;63488;48.092;-1.640;2023-06-14T04:07:01;39.58;;;27.17;;
74926;SDS011;63488;48.092;-1.640;2023-06-14T04:09:28;41.08;;;28.30;;
74926;SDS011;63488;48.092;-1.640;2023-06-14T04:11:54;40.28;;;28.15;;
74926;SDS011;63488;48.092;-1.640;2023-06-14T04:14:20;40.17;;;28.83;;
74926;SDS011;63488;48.092;-1.640;2023-06-14T04:16:48;43.05;;;28.02;;
74926;SDS011;63488;48.092;-1.640;2023-06-14T04:19:14;42.43;;;29.10;;
74926;SDS011;63488;48.092;-1.640;2023-06-14T04:21:40;41.42;;;28.88;;
74926;SDS011;63488;48.092;-1.640;2023-06-14T04:24:05;42.20;;;28.38;;
74926;SDS011;63488;48.092;-1.640;2023-06-14T04:26:32;39.72;;;28.35;;
74926;SDS011;63488;48.092;-1.640;2023-06-14T04:28:58;40.47;;;26.88;;
74926;SDS011;63488;48.092;-1.640;2023-06-14T04:31:27;41.65;;;27.30;;
74926;SDS011;63488;48.092;-1.640;2023-06-14T04:33:54;41.88;;;27.67;;
74926;SDS011;63488;48.092;-1.640;2023-06-14T04:36:19;40.53;;;27.15;;
74926;SDS011;63488;48.092;-1.640;2023-06-14T04:38:44;40.92;;;27.35;;
74926;SDS011;63488;48.092;-1.640;2023-06-14T04:41:11;40.17;;;26.38;;
74926;SDS011;63488;48.092;-1.640;2023-06-14T04:43:36;38.53;;;26.95;;
74926;SDS011;63488;48.092;-1.640;2023-06-14T04:46:05;39.00;;;27.08;;
74926;SDS011;63488;48.092;-1.640;2023-06-14T04:48:35;37.72;;;26.27;;
74926;SDS011;63488;48.092;-1.640;2023-06-14T04:51:00;38.70;;;27.33;;
74926;SDS011;63488;48.092;-1.640;2023-06-14T04:53:26;38.67;;;26.77;;
74926;SDS011;63488;48.092;-1.640;2023-06-14T04:55:54;39.60;;;26.30;;
74926;SDS011;63488;48.092;-1.640;2023-06-14T04:58:19;37.60;;;26.48;;
74926;SDS011;63488;48.092;-1.640;2023-06-14T05:00:45;35.03;;;26.20;;
74926;SDS011;63488;48.092;-1.640;2023-06-14T05:03:10;41.08;;;26.27;;
74926;SDS011;63488;48.092;-1.640;2023-06-14T05:05:39;37.35;;;26.40;;
74926;SDS011;63488;48.092;-1.640;2023-06-14T05:08:04;35.83;;;24.95;;
74926;SDS011;63488;48.092;-1.640;2023-06-14T05:10:29;36.65;;;25.02;;
74926;SDS011;63488;48.092;-1.640;2023-06-14T05:12:55;34.75;;;23.92;;
74926;SDS011;63488;48.092;-1.640;2023-06-14T05:15:20;32.92;;;24.77;;
74926;SDS011;63488;48.092;-1.640;2023-06-14T05:17:50;38.75;;;25.05;;
74926;SDS011;63488;48.092;-1.640;2023-06-14T05:20:20;38.58;;;23.73;;
74926;SDS011;63488;48.092;-1.640;2023-06-14T05:22:45;35.10;;;25.05;;
74926;SDS011;63488;48.092;-1.640;2023-06-14T05:25:10;36.70;;;24.13;;
74926;SDS011;63488;48.092;-1.640;2023-06-14T05:27:36;39.67;;;24.38;;
74926;SDS011;63488;48.092;-1.640;2023-06-14T05:30:02;36.78;;;24.73;;
74926;SDS011;63488;48.092;-1.640;2023-06-14T05:32:29;33.00;;;24.63;;
74926;SDS011;63488;48.092;-1.640;2023-06-14T05:34:54;36.72;;;24.95;;
74926;SDS011;63488;48.092;-1.640;2023-06-14T05:37:19;36.65;;;24.00;;
74926;SDS011;63488;48.092;-1.640;2023-06-14T05:39:45;37.63;;;23.33;;
74926;SDS011;63488;48.092;-1.640;2023-06-14T05:42:10;35.58;;;23.23;;
74926;SDS011;63488;48.092;-1.640;2023-06-14T05:44:36;33.03;;;22.60;;
74926;SDS011;63488;48.092;-1.640;2023-06-14T05:47:01;37.65;;;24.27;;
74926;SDS011;63488;48.092;-1.640;2023-06-14T05:49:27;32.55;;;23.65;;
74926;SDS011;63488;48.092;-1.640;2023-06-14T05:51:52;32.50;;;22.48;;
74926;SDS011;63488;48.092;-1.640;2023-06-14T05:54:17;34.33;;;22.67;;
74926;SDS011;63488;48.092;-1.640;2023-06-14T05:56:43;36.00;;;23.10;;
74926;SDS011;63488;48.092;-1.640;2023-06-14T05:59:08;27.98;;;21.45;;
74926;SDS011;63488;48.092;-1.640;2023-06-14T06:01:33;35.15;;;22.38;;
74926;SDS011;63488;48.092;-1.640;2023-06-14T06:04:02;33.35;;;22.25;;
74926;SDS011;63488;48.092;-1.640;2023-06-14T06:06:27;34.75;;;22.55;;
74926;SDS011;63488;48.092;-1.640;2023-06-14T06:08:53;33.75;;;22.33;;
74926;SDS011;63488;48.092;-1.640;2023-06-14T06:11:18;31.25;;;21.88;;
74926;SDS011;63488;48.092;-1.640;2023-06-14T06:13:44;32.15;;;20.33;;
74926;SDS011;63488;48.092;-1.640;2023-06-14T06:16:09;31.10;;;20.45;;
74926;SDS011;63488;48.092;-1.640;2023-06-14T06:18:35;32.50;;;20.90;;
74926;SDS011;63488;48.092;-1.640;2023-06-14T06:21:01;31.25;;;21.20;;
74926;SDS011;63488;48.092;-1.640;2023-06-14T06:23:28;33.33;;;21.25;;
74926;SDS011;63488;48.092;-1.640;2023-06-14T06:25:53;28.83;;;20.33;;
74926;SDS011;63488;48.092;-1.640;2023-06-14T06:28:19;28.90;;;19.88;;
74926;SDS011;63488;48.092;-1.640;2023-06-14T06:30:44;30.63;;;20.38;;
74926;SDS011;63488;48.092;-1.640;2023-06-14T06:33:10;32.05;;;19.73;;
74926;SDS011;63488;48.092;-1.640;2023-06-14T06:35:35;29.70;;;19.67;;
74926;SDS011;63488;48.092;-1.640;2023-06-14T06:38:01;33.28;;;20.65;;
74926;SDS011;63488;48.092;-1.640;2023-06-14T06:40:26;27.08;;;18.73;;
74926;SDS011;63488;48.092;-1.640;2023-06-14T06:42:52;28.85;;;18.75;;
74926;SDS011;63488;48.092;-1.640;2023-06-14T06:45:18;24.92;;;18.13;;
74926;SDS011;63488;48.092;-1.640;2023-06-14T06:47:43;27.95;;;19.45;;
74926;SDS011;63488;48.092;-1.640;2023-06-14T06:50:09;26.70;;;17.63;;
74926;SDS011;63488;48.092;-1.640;2023-06-14T06:52:34;24.98;;;16.90;;
74926;SDS011;63488;48.092;-1.640;2023-06-14T06:55:00;25.88;;;17.08;;
74926;SDS011;63488;48.092;-1.640;2023-06-14T06:57:25;22.27;;;17.08;;
74926;SDS011;63488;48.092;-1.640;2023-06-14T06:59:51;25.55;;;16.67;;
74926;SDS011;63488;48.092;-1.640;2023-06-14T07:02:16;24.83;;;16.52;;
74926;SDS011;63488;48.092;-1.640;2023-06-14T07:04:42;25.70;;;15.77;;
74926;SDS011;63488;48.092;-1.640;2023-06-14T07:07:07;22.10;;;14.73;;
74926;SDS011;63488;48.092;-1.640;2023-06-14T07:09:34;23.25;;;15.57;;
74926;SDS011;63488;48.092;-1.640;2023-06-14T07:12:00;22.85;;;15.73;;
74926;SDS011;63488;48.092;-1.640;2023-06-14T07:14:25;22.00;;;14.52;;
74926;SDS011;63488;48.092;-1.640;2023-06-14T07:16:50;27.00;;;15.32;;
74926;SDS011;63488;48.092;-1.640;2023-06-14T07:19:16;23.23;;;15.85;;
74926;SDS011;63488;48.092;-1.640;2023-06-14T07:21:42;22.92;;;15.07;;
74926;SDS011;63488;48.092;-1.640;2023-06-14T07:24:07;20.85;;;14.52;;
74926;SDS011;63488;48.092;-1.640;2023-06-14T07:26:33;24.05;;;15.38;;
74926;SDS011;63488;48.092;-1.640;2023-06-14T07:28:58;23.42;;;14.15;;
74926;SDS011;63488;48.092;-1.640;2023-06-14T07:31:24;22.15;;;13.70;;
74926;SDS011;63488;48.092;-1.640;2023-06-14T07:33:49;21.58;;;14.77;;
74926;SDS011;63488;48.092;-1.640;2023-06-14T07:36:15;19.80;;;12.85;;
74926;SDS011;63488;48.092;-1.640;2023-06-14T07:38:40;20.48;;;12.25;;
74926;SDS011;63488;48.092;-1.640;2023-06-14T07:41:06;21.85;;;13.75;;
74926;SDS011;63488;48.092;-1.640;2023-06-14T07:43:31;23.52;;;14.75;;
74926;SDS011;63488;48.092;-1.640;2023-06-14T07:45:57;24.40;;;13.13;;
74926;SDS011;63488;48.092;-1.640;2023-06-14T07:48:22;20.15;;;12.07;;
74926;SDS011;63488;48.092;-1.640;2023-06-14T07:50:48;16.60;;;10.85;;
74926;SDS011;63488;48.092;-1.640;2023-06-14T07:53:14;20.80;;;12.23;;
74926;SDS011;63488;48.092;-1.640;2023-06-14T07:55:39;17.90;;;12.18;;
74926;SDS011;63488;48.092;-1.640;2023-06-14T07:58:08;16.23;;;11.60;;
74926;SDS011;63488;48.092;-1.640;2023-06-14T08:00:33;15.77;;;10.82;;
74926;SDS011;63488;48.092;-1.640;2023-06-14T08:02:59;21.98;;;12.15;;
74926;SDS011;63488;48.092;-1.640;2023-06-14T08:05:28;16.92;;;12.10;;
74926;SDS011;63488;48.092;-1.640;2023-06-14T08:07:53;19.40;;;11.60;;
74926;SDS011;63488;48.092;-1.640;2023-06-14T08:10:19;17.27;;;12.25;;
74926;SDS011;63488;48.092;-1.640;2023-06-14T08:12:45;22.20;;;13.02;;
74926;SDS011;63488;48.092;-1.640;2023-06-14T08:15:10;19.63;;;11.77;;
74926;SDS011;63488;48.092;-1.640;2023-06-14T08:17:36;18.83;;;11.20;;
74926;SDS011;63488;48.092;-1.640;2023-06-14T08:20:02;17.42;;;10.57;;
74926;SDS011;63488;48.092;-1.640;2023-06-14T08:22:29;18.38;;;11.30;;
74926;SDS011;63488;48.092;-1.640;2023-06-14T08:24:57;16.23;;;10.63;;
74926;SDS011;63488;48.092;-1.640;2023-06-14T08:27:23;15.13;;;10.52;;
74926;SDS011;63488;48.092;-1.640;2023-06-14T08:29:49;17.10;;;11.02;;
74926;SDS011;63488;48.092;-1.640;2023-06-14T08:32:15;16.83;;;10.95;;
74926;SDS011;63488;48.092;-1.640;2023-06-14T08:34:41;16.55;;;10.98;;
74926;SDS011;63488;48.092;-1.640;2023-06-14T08:37:06;16.63;;;11.60;;
74926;SDS011;63488;48.092;-1.640;2023-06-14T08:39:32;15.90;;;10.52;;
74926;SDS011;63488;48.092;-1.640;2023-06-14T08:41:58;19.27;;;11.15;;
74926;SDS011;63488;48.092;-1.640;2023-06-14T08:44:23;14.65;;;10.25;;
74926;SDS011;63488;48.092;-1.640;2023-06-14T08:46:49;18.25;;;10.65;;
74926;SDS011;63488;48.092;-1.640;2023-06-14T08:49:17;13.98;;;10.10;;
74926;SDS011;63488;48.092;-1.640;2023-06-14T08:51:43;13.05;;;9.57;;
74926;SDS011;63488;48.092;-1.640;2023-06-14T08:54:08;19.35;;;9.55;;
74926;SDS011;63488;48.092;-1.640;2023-06-14T08:56:35;13.85;;;10.32;;
74926;SDS011;63488;48.092;-1.640;2023-06-14T08:59:02;15.93;;;9.85;;
74926;SDS011;63488;48.092;-1.640;2023-06-14T09:01:30;17.95;;;10.20;;
74926;SDS011;63488;48.092;-1.640;2023-06-14T09:03:56;13.07;;;9.82;;
74926;SDS011;63488;48.092;-1.640;2023-06-14T09:06:22;13.00;;;9.30;;
74926;SDS011;63488;48.092;-1.640;2023-06-14T09:08:48;16.23;;;8.57;;
74926;SDS011;63488;48.092;-1.640;2023-06-14T09:11:14;13.63;;;8.88;;
74926;SDS011;63488;48.092;-1.640;2023-06-14T09:13:40;13.88;;;8.52;;
74926;SDS011;63488;48.092;-1.640;2023-06-14T09:16:06;15.65;;;8.95;;
74926;SDS011;63488;48.092;-1.640;2023-06-14T09:18:35;16.77;;;9.27;;
74926;SDS011;63488;48.092;-1.640;2023-06-14T09:21:01;14.32;;;9.05;;
74926;SDS011;63488;48.092;-1.640;2023-06-14T09:23:27;14.13;;;9.07;;
74926;SDS011;63488;48.092;-1.640;2023-06-14T09:25:53;17.95;;;10.15;;
74926;SDS011;63488;48.092;-1.640;2023-06-14T09:28:18;13.45;;;8.45;;
74926;SDS011;63488;48.092;-1.640;2023-06-14T09:30:45;16.50;;;8.15;;
74926;SDS011;63488;48.092;-1.640;2023-06-14T09:33:10;14.15;;;8.70;;
74926;SDS011;63488;48.092;-1.640;2023-06-14T09:35:36;19.38;;;9.73;;
74926;SDS011;63488;48.092;-1.640;2023-06-14T09:38:01;14.68;;;8.82;;
74926;SDS011;63488;48.092;-1.640;2023-06-14T09:40:27;14.75;;;8.32;;
74926;SDS011;63488;48.092;-1.640;2023-06-14T09:42:52;11.55;;;8.25;;
74926;SDS011;63488;48.092;-1.640;2023-06-14T09:45:19;14.85;;;8.23;;
74926;SDS011;63488;48.092;-1.640;2023-06-14T09:47:48;13.55;;;8.27;;
74926;SDS011;63488;48.092;-1.640;2023-06-14T09:50:14;12.93;;;8.57;;
74926;SDS011;63488;48.092;-1.640;2023-06-14T09:52:39;13.48;;;7.70;;
74926;SDS011;63488;48.092;-1.640;2023-06-14T09:55:12;14.50;;;7.38;;
74926;SDS011;63488;48.092;-1.640;2023-06-14T09:57:41;11.70;;;7.32;;
74926;SDS011;63488;48.092;-1.640;2023-06-14T10:00:10;13.18;;;7.50;;
74926;SDS011;63488;48.092;-1.640;2023-06-14T10:02:38;10.75;;;7.25;;
74926;SDS011;63488;48.092;-1.640;2023-06-14T10:05:08;13.00;;;7.13;;
74926;SDS011;63488;48.092;-1.640;2023-06-14T10:07:44;10.57;;;7.05;;
74926;SDS011;63488;48.092;-1.640;2023-06-14T10:10:13;15.40;;;7.35;;
74926;SDS011;63488;48.092;-1.640;2023-06-14T10:12:38;11.15;;;7.22;;
74926;SDS011;63488;48.092;-1.640;2023-06-14T10:15:05;12.80;;;7.00;;
74926;SDS011;63488;48.092;-1.640;2023-06-14T10:19:58;13.05;;;6.90;;
74926;SDS011;63488;48.092;-1.640;2023-06-14T10:22:35;10.55;;;7.30;;
74926;SDS011;63488;48.092;-1.640;2023-06-14T10:25:06;8.80;;;7.13;;
74926;SDS011;63488;48.092;-1.640;2023-06-14T10:32:27;12.50;;;6.93;;
74926;SDS011;63488;48.092;-1.640;2023-06-14T10:34:57;13.00;;;7.95;;
74926;SDS011;63488;48.092;-1.640;2023-06-14T10:37:22;12.40;;;6.90;;
74926;SDS011;63488;48.092;-1.640;2023-06-14T10:39:49;9.27;;;6.40;;
74926;SDS011;63488;48.092;-1.640;2023-06-14T10:42:15;9.38;;;6.95;;
74926;SDS011;63488;48.092;-1.640;2023-06-14T10:44:41;12.57;;;8.18;;
74926;SDS011;63488;48.092;-1.640;2023-06-14T10:47:10;9.40;;;7.30;;
74926;SDS011;63488;48.092;-1.640;2023-06-14T10:49:43;11.80;;;7.45;;
74926;SDS011;63488;48.092;-1.640;2023-06-14T10:52:12;11.52;;;6.82;;
74926;SDS011;63488;48.092;-1.640;2023-06-14T10:57:53;14.30;;;7.28;;
74926;SDS011;63488;48.092;-1.640;2023-06-14T11:00:22;10.80;;;6.68;;
74926;SDS011;63488;48.092;-1.640;2023-06-14T11:05:23;12.52;;;7.38;;
74926;SDS011;63488;48.092;-1.640;2023-06-14T11:10:39;13.98;;;7.63;;
74926;SDS011;63488;48.092;-1.640;2023-06-14T11:13:05;7.18;;;6.03;;
74926;SDS011;63488;48.092;-1.640;2023-06-14T11:15:31;11.35;;;7.28;;
74926;SDS011;63488;48.092;-1.640;2023-06-14T11:17:57;11.32;;;6.95;;
74926;SDS011;63488;48.092;-1.640;2023-06-14T11:20:26;13.52;;;6.78;;
74926;SDS011;63488;48.092;-1.640;2023-06-14T11:22:52;9.00;;;6.72;;
74926;SDS011;63488;48.092;-1.640;2023-06-14T11:25:18;11.88;;;6.80;;
74926;SDS011;63488;48.092;-1.640;2023-06-14T11:27:44;12.77;;;6.72;;
74926;SDS011;63488;48.092;-1.640;2023-06-14T11:30:11;9.93;;;6.88;;
74926;SDS011;63488;48.092;-1.640;2023-06-14T11:32:37;12.05;;;6.85;;
74926;SDS011;63488;48.092;-1.640;2023-06-14T11:35:03;11.80;;;6.95;;
74926;SDS011;63488;48.092;-1.640;2023-06-14T11:37:29;10.43;;;6.35;;
74926;SDS011;63488;48.092;-1.640;2023-06-14T11:39:59;9.55;;;6.45;;
74926;SDS011;63488;48.092;-1.640;2023-06-14T11:42:26;10.02;;;6.72;;
74926;SDS011;63488;48.092;-1.640;2023-06-14T11:44:52;10.35;;;6.68;;
74926;SDS011;63488;48.092;-1.640;2023-06-14T11:47:18;10.07;;;6.78;;
74926;SDS011;63488;48.092;-1.640;2023-06-14T11:49:43;13.75;;;7.15;;
74926;SDS011;63488;48.092;-1.640;2023-06-14T11:52:08;12.23;;;6.90;;
74926;SDS011;63488;48.092;-1.640;2023-06-14T11:54:34;11.70;;;7.18;;
74926;SDS011;63488;48.092;-1.640;2023-06-14T11:56:59;12.88;;;6.53;;
74926;SDS011;63488;48.092;-1.640;2023-06-14T11:59:25;11.52;;;7.13;;
74926;SDS011;63488;48.092;-1.640;2023-06-14T12:01:52;10.68;;;6.80;;
74926;SDS011;63488;48.092;-1.640;2023-06-14T12:04:28;11.17;;;7.17;;
74926;SDS011;63488;48.092;-1.640;2023-06-14T12:06:54;9.25;;;6.03;;
74926;SDS011;63488;48.092;-1.640;2023-06-14T12:09:20;9.90;;;6.72;;
74926;SDS011;63488;48.092;-1.640;2023-06-14T12:11:48;9.77;;;6.78;;
74926;SDS011;63488;48.092;-1.640;2023-06-14T12:14:14;10.02;;;6.35;;
74926;SDS011;63488;48.092;-1.640;2023-06-14T12:16:39;9.35;;;6.32;;
74926;SDS011;63488;48.092;-1.640;2023-06-14T12:19:13;9.85;;;6.57;;
74926;SDS011;63488;48.092;-1.640;2023-06-14T12:21:38;9.68;;;6.63;;
74926;SDS011;63488;48.092;-1.640;2023-06-14T12:24:06;8.88;;;6.10;;
74926;SDS011;63488;48.092;-1.640;2023-06-14T12:26:32;9.05;;;6.35;;
74926;SDS011;63488;48.092;-1.640;2023-06-14T12:28:57;10.13;;;6.07;;
74926;SDS011;63488;48.092;-1.640;2023-06-14T12:31:23;8.30;;;5.65;;
74926;SDS011;63488;48.092;-1.640;2023-06-14T12:33:49;10.30;;;6.43;;
74926;SDS011;63488;48.092;-1.640;2023-06-14T12:36:14;8.13;;;6.32;;
74926;SDS011;63488;48.092;-1.640;2023-06-14T12:38:40;8.18;;;5.93;;
74926;SDS011;63488;48.092;-1.640;2023-06-14T12:41:06;9.10;;;6.60;;
74926;SDS011;63488;48.092;-1.640;2023-06-14T12:43:32;9.07;;;6.22;;
74926;SDS011;63488;48.092;-1.640;2023-06-14T12:45:58;15.27;;;6.60;;
74926;SDS011;63488;48.092;-1.640;2023-06-14T12:48:23;11.93;;;5.90;;
74926;SDS011;63488;48.092;-1.640;2023-06-14T12:53:55;8.70;;;6.10;;
74926;SDS011;63488;48.092;-1.640;2023-06-14T12:56:20;6.97;;;6.05;;
74926;SDS011;63488;48.092;-1.640;2023-06-14T12:58:45;10.80;;;5.95;;
74926;SDS011;63488;48.092;-1.640;2023-06-14T13:01:11;9.20;;;6.40;;
74926;SDS011;63488;48.092;-1.640;2023-06-14T13:03:36;9.57;;;6.65;;
74926;SDS011;63488;48.092;-1.640;2023-06-14T13:06:02;9.98;;;6.00;;
74926;SDS011;63488;48.092;-1.640;2023-06-14T13:08:28;7.88;;;5.90;;
74926;SDS011;63488;48.092;-1.640;2023-06-14T13:10:54;7.93;;;5.53;;
74926;SDS011;63488;48.092;-1.640;2023-06-14T13:13:19;8.40;;;5.93;;
74926;SDS011;63488;48.092;-1.640;2023-06-14T13:15:45;7.45;;;6.40;;
74926;SDS011;63488;48.092;-1.640;2023-06-14T13:18:11;11.23;;;6.00;;
74926;SDS011;63488;48.092;-1.640;2023-06-14T13:20:38;9.23;;;6.15;;
74926;SDS011;63488;48.092;-1.640;2023-06-14T13:23:04;7.95;;;6.00;;
74926;SDS011;63488;48.092;-1.640;2023-06-14T13:25:31;10.77;;;6.40;;
74926;SDS011;63488;48.092;-1.640;2023-06-14T13:27:56;9.23;;;5.85;;
74926;SDS011;63488;48.092;-1.640;2023-06-14T13:30:21;7.10;;;6.40;;
74926;SDS011;63488;48.092;-1.640;2023-06-14T13:32:47;10.98;;;6.25;;
74926;SDS011;63488;48.092;-1.640;2023-06-14T13:35:13;9.73;;;6.05;;
74926;SDS011;63488;48.092;-1.640;2023-06-14T13:37:39;9.48;;;6.10;;
74926;SDS011;63488;48.092;-1.640;2023-06-14T13:40:05;10.13;;;6.43;;
74926;SDS011;63488;48.092;-1.640;2023-06-14T13:42:31;6.55;;;5.60;;
74926;SDS011;63488;48.092;-1.640;2023-06-14T13:44:57;10.57;;;6.00;;
74926;SDS011;63488;48.092;-1.640;2023-06-14T13:47:22;7.38;;;5.25;;
74926;SDS011;63488;48.092;-1.640;2023-06-14T13:49:48;7.07;;;5.03;;
74926;SDS011;63488;48.092;-1.640;2023-06-14T13:52:14;9.02;;;5.57;;
74926;SDS011;63488;48.092;-1.640;2023-06-14T13:54:39;9.43;;;6.15;;
74926;SDS011;63488;48.092;-1.640;2023-06-14T13:57:04;8.18;;;5.85;;
74926;SDS011;63488;48.092;-1.640;2023-06-14T13:59:30;9.40;;;6.55;;
74926;SDS011;63488;48.092;-1.640;2023-06-14T14:01:56;10.73;;;5.78;;
74926;SDS011;63488;48.092;-1.640;2023-06-14T14:04:21;9.02;;;6.03;;
74926;SDS011;63488;48.092;-1.640;2023-06-14T14:06:47;8.55;;;6.13;;
74926;SDS011;63488;48.092;-1.640;2023-06-14T14:09:12;8.65;;;6.25;;
74926;SDS011;63488;48.092;-1.640;2023-06-14T14:11:38;9.85;;;5.93;;
74926;SDS011;63488;48.092;-1.640;2023-06-14T14:14:04;7.18;;;5.80;;
74926;SDS011;63488;48.092;-1.640;2023-06-14T14:16:31;9.30;;;6.00;;
74926;SDS011;63488;48.092;-1.640;2023-06-14T14:18:57;7.10;;;5.43;;
74926;SDS011;63488;48.092;-1.640;2023-06-14T14:21:22;9.43;;;6.00;;
74926;SDS011;63488;48.092;-1.640;2023-06-14T14:23:48;7.85;;;6.28;;
74926;SDS011;63488;48.092;-1.640;2023-06-14T14:26:14;8.55;;;5.53;;
74926;SDS011;63488;48.092;-1.640;2023-06-14T14:28:40;8.55;;;5.85;;